createdAt,value
2023-04-17T04:08:21.681Z,10.24
2023-04-17T04:11:25.125Z,10.24
2023-04-17T04:14:27.823Z,9.74
2023-04-17T04:17:30.739Z,9.75
2023-04-17T04:20:33.621Z,9.77
2023-04-17T04:23:40.248Z,9.83
2023-04-17T04:26:43.520Z,9.92
2023-04-17T04:29:49.611Z,9.97
2023-04-17T04:32:53.134Z,10.02
2023-04-17T04:36:01.660Z,10.23
2023-04-17T04:39:05.786Z,10.23
2023-04-17T04:42:10.596Z,10.30
2023-04-17T04:45:13.907Z,10.44
2023-04-17T04:48:17.317Z,10.54
2023-04-17T04:51:20.866Z,10.55
2023-04-17T04:54:25.158Z,10.52
2023-04-17T04:57:29.532Z,10.57
2023-04-17T05:00:33.108Z,10.59
2023-04-17T05:03:37.350Z,10.63
2023-04-17T05:06:41.579Z,10.72
2023-04-17T05:09:44.323Z,10.81
2023-04-17T05:12:47.875Z,10.93
2023-04-17T05:15:51.647Z,11.07
2023-04-17T05:18:56.800Z,11.18
2023-04-17T05:21:59.880Z,11.28
2023-04-17T05:25:03.254Z,11.37
2023-04-17T05:28:06.326Z,11.43
2023-04-17T05:31:09.314Z,11.45
2023-04-17T05:34:12.484Z,11.57
2023-04-17T05:37:15.529Z,11.68
2023-04-17T05:40:18.333Z,11.68
2023-04-17T05:43:21.470Z,11.79
2023-04-17T05:46:24.271Z,11.85
2023-04-17T05:49:27.218Z,12.04
2023-04-17T05:52:29.906Z,12.12
2023-04-17T05:55:33.071Z,12.37
2023-04-17T05:58:36.214Z,12.65
2023-04-17T06:05:18.430Z,12.95
2023-04-17T06:08:21.957Z,12.94
2023-04-17T06:11:24.560Z,13.05
2023-04-17T06:14:28.204Z,13.05
2023-04-17T06:17:33.915Z,13.34
2023-04-17T06:20:39.409Z,13.43
2023-04-17T06:23:43.195Z,13.58
2023-04-17T06:26:46.108Z,13.62
2023-04-17T06:29:49.184Z,13.41
2023-04-17T06:32:53.213Z,13.46
2023-04-17T06:36:15.934Z,13.63
2023-04-17T06:39:19.678Z,13.90
2023-04-17T06:42:22.741Z,14.10
2023-04-17T06:45:29.837Z,14.24
2023-04-17T06:48:32.541Z,14.19
2023-04-17T06:51:36.393Z,14.69
2023-04-17T06:54:39.335Z,14.91
2023-04-17T06:57:42.254Z,14.66
2023-04-17T07:00:44.995Z,14.66
2023-04-17T07:11:16.809Z,15.40
2023-04-17T07:14:19.807Z,15.41
2023-04-17T07:17:22.410Z,15.36
2023-04-17T07:20:25.350Z,15.88
2023-04-17T07:23:27.962Z,15.31
2023-04-17T07:26:30.860Z,15.86
2023-04-17T07:29:33.520Z,15.88
2023-04-17T07:32:37.170Z,16.23
2023-04-17T07:36:01.902Z,16.73
2023-04-17T07:39:06.500Z,16.36
2023-04-17T07:53:48.994Z,18.23
2023-04-17T07:56:51.914Z,19.93
2023-04-17T07:59:54.533Z,21.12
2023-04-17T08:02:58.382Z,22.30
2023-04-17T08:06:01.663Z,22.61
2023-04-17T08:09:04.627Z,21.86
2023-04-17T08:12:08.051Z,21.04
2023-04-17T08:15:11.165Z,20.65
2023-04-17T08:18:14.108Z,21.02
2023-04-17T08:21:17.270Z,22.08
2023-04-17T08:24:20.488Z,22.39
2023-04-17T08:27:24.902Z,23.03
2023-04-17T08:30:27.794Z,22.42
2023-04-17T08:33:30.545Z,23.12
2023-04-17T08:36:33.353Z,22.99
2023-04-17T08:39:36.176Z,22.86
2023-04-17T08:42:41.774Z,22.26
2023-04-17T08:45:53.576Z,22.53
2023-04-17T08:48:56.971Z,23.11
2023-04-17T08:52:04.040Z,23.66
2023-04-17T08:55:07.509Z,22.39
2023-04-17T08:58:10.254Z,22.65
2023-04-17T09:01:19.983Z,22.20
2023-04-17T09:04:43.284Z,21.90
2023-04-17T09:07:46.471Z,21.02
2023-04-17T09:10:54.162Z,21.58
2023-04-17T09:13:57.250Z,22.49
2023-04-17T09:16:59.818Z,22.62
2023-04-17T09:20:04.065Z,22.33
2023-04-17T09:23:06.737Z,22.26
2023-04-17T09:26:11.454Z,21.16
2023-04-17T09:29:14.796Z,20.68
2023-04-17T09:32:22.628Z,20.36
2023-04-17T09:35:26.281Z,21.66
2023-04-17T09:38:41.127Z,21.67
2023-04-17T09:41:44.021Z,21.38
2023-04-17T09:52:23.780Z,22.01
2023-04-17T09:55:30.290Z,23.38
2023-04-17T10:13:27.955Z,23.76
2023-04-17T10:16:38.705Z,23.92
2023-04-17T10:19:41.672Z,21.52
2023-04-17T10:22:45.247Z,20.99
2023-04-17T10:25:48.234Z,21.93
2023-04-17T10:28:53.116Z,21.97
2023-04-17T10:32:08.826Z,22.41
2023-04-17T10:35:17.517Z,21.85
2023-04-17T10:38:34.951Z,20.21
2023-04-17T10:42:04.040Z,19.75
2023-04-17T10:45:19.207Z,19.62
2023-04-17T10:48:35.202Z,19.05
2023-04-17T10:51:39.447Z,18.63
2023-04-17T10:55:14.490Z,18.99
2023-04-17T10:58:17.249Z,19.63
2023-04-17T11:01:19.802Z,19.26
2023-04-17T11:04:25.391Z,18.84
2023-04-17T11:07:28.440Z,19.05
2023-04-17T11:10:36.167Z,18.71
2023-04-17T11:13:42.066Z,18.30
2023-04-17T11:16:47.009Z,18.60
2023-04-17T11:19:50.012Z,19.20
2023-04-17T11:23:08.353Z,19.73
2023-04-17T11:26:15.434Z,19.08
2023-04-17T11:29:20.704Z,19.42
2023-04-17T11:32:23.417Z,19.47
2023-04-17T11:35:50.613Z,20.15
2023-04-17T11:38:55.327Z,20.25
2023-04-17T11:41:58.451Z,20.45
2023-04-17T11:45:17.134Z,21.04
2023-04-17T11:48:23.019Z,20.87
2023-04-17T11:51:26.253Z,21.21
2023-04-17T11:54:30.965Z,20.25
2023-04-17T11:57:43.483Z,19.86
2023-04-17T12:01:03.601Z,19.44
2023-04-17T12:04:20.689Z,19.22
2023-04-17T12:07:24.867Z,19.17
2023-04-17T12:10:38.871Z,19.07
2023-04-17T12:13:41.414Z,18.79
2023-04-17T12:16:44.349Z,18.95
2023-04-17T12:19:47.031Z,19.04
2023-04-17T12:22:49.903Z,19.31
2023-04-17T12:25:52.464Z,19.52
2023-04-17T12:28:56.874Z,19.50
2023-04-17T12:31:59.733Z,19.16
2023-04-17T12:35:02.737Z,19.36
2023-04-17T12:38:05.353Z,19.58
2023-04-17T12:41:08.312Z,19.74
2023-04-17T12:44:11.650Z,19.51
2023-04-17T12:47:14.796Z,19.36
2023-04-17T12:50:17.475Z,19.42
2023-04-17T12:53:20.655Z,19.11
2023-04-17T12:56:23.658Z,19.13
2023-04-17T12:59:26.642Z,19.32
2023-04-17T13:02:29.727Z,19.28
2023-04-17T13:05:33.165Z,19.09
2023-04-17T13:08:35.795Z,19.05
2023-04-17T13:11:38.613Z,19.15
2023-04-17T13:14:42.550Z,19.26
2023-04-17T13:17:45.687Z,18.83
2023-04-17T13:20:48.348Z,18.57
2023-04-17T13:23:52.040Z,18.34
2023-04-17T13:26:57.774Z,18.14
2023-04-17T13:30:01.058Z,17.74
2023-04-17T13:33:03.862Z,17.76
2023-04-17T13:36:07.640Z,17.41
2023-04-17T13:39:11.202Z,17.00
2023-04-17T13:42:19.104Z,16.29
2023-04-17T13:45:21.970Z,15.75
2023-04-17T13:48:24.976Z,15.33
2023-04-17T13:51:27.637Z,14.95
2023-04-17T13:54:30.628Z,14.99
2023-04-17T13:57:33.170Z,15.05
2023-04-17T14:00:36.159Z,15.02
2023-04-17T14:03:41.710Z,15.07
2023-04-17T14:06:49.485Z,15.03
2023-04-17T14:09:52.356Z,15.15
2023-04-17T14:12:54.900Z,15.31
2023-04-17T14:15:57.863Z,15.54
2023-04-17T14:19:09.611Z,15.86
2023-04-17T14:22:16.311Z,15.91
2023-04-17T14:25:18.879Z,16.13
2023-04-17T14:28:23.509Z,16.24
2023-04-17T14:31:26.149Z,16.37
2023-04-17T14:34:29.546Z,16.55
2023-04-17T14:37:32.067Z,16.35
2023-04-17T14:40:34.972Z,16.44
2023-04-17T14:43:38.122Z,16.53
2023-04-17T14:46:40.975Z,16.47
2023-04-17T14:49:43.674Z,16.36
2023-04-17T14:52:46.846Z,16.25
2023-04-17T14:55:49.741Z,16.16
2023-04-17T14:58:53.023Z,16.21
2023-04-17T15:01:55.855Z,16.19
2023-04-17T15:04:59.673Z,16.24
2023-04-17T15:08:02.223Z,16.21
2023-04-17T15:11:06.520Z,16.17
2023-04-17T15:14:09.116Z,16.11
2023-04-17T15:17:12.535Z,16.29
2023-04-17T15:20:15.916Z,16.24
2023-04-17T15:23:18.909Z,16.24
2023-04-17T15:26:21.544Z,16.27
2023-04-17T15:29:24.618Z,16.22
2023-04-17T15:32:27.420Z,16.10
2023-04-17T15:35:30.426Z,16.13
2023-04-17T15:38:33.006Z,15.84
2023-04-17T15:41:39.561Z,15.98
2023-04-17T15:44:42.164Z,16.06
2023-04-17T15:47:45.335Z,15.80
2023-04-17T15:50:48.039Z,15.78
